sensor_id;sensor_type;location;lat;lon;timestamp;P1;durP1;ratioP1;P2;durP2;ratioP2
2650;SDS011;1335;48.180;16.342;2022-11-21T00:42:23;16.07;;;13.17;;
2650;SDS011;1335;48.180;16.342;2022-11-21T00:44:50;17.40;;;13.33;;
2650;SDS011;1335;48.180;16.342;2022-11-21T00:47:18;18.00;;;12.60;;
2650;SDS011;1335;48.180;16.342;2022-11-21T00:49:45;16.77;;;12.80;;
2650;SDS011;1335;48.180;16.342;2022-11-21T00:52:12;17.27;;;13.37;;
2650;SDS011;1335;48.180;16.342;2022-11-21T00:54:39;15.73;;;11.80;;
2650;SDS011;1335;48.180;16.342;2022-11-21T00:57:06;20.93;;;12.53;;
2650;SDS011;1335;48.180;16.342;2022-11-21T00:59:35;16.20;;;12.47;;
2650;SDS011;1335;48.180;16.342;2022-11-21T01:02:01;15.10;;;12.23;;
2650;SDS011;1335;48.180;16.342;2022-11-21T01:04:29;18.23;;;13.33;;
2650;SDS011;1335;48.180;16.342;2022-11-21T01:06:57;18.73;;;13.00;;
2650;SDS011;1335;48.180;16.342;2022-11-21T01:09:24;14.43;;;9.63;;
2650;SDS011;1335;48.180;16.342;2022-11-21T01:11:52;12.97;;;10.23;;
2650;SDS011;1335;48.180;16.342;2022-11-21T01:14:19;14.60;;;10.77;;
2650;SDS011;1335;48.180;16.342;2022-11-21T01:16:47;13.30;;;10.27;;
2650;SDS011;1335;48.180;16.342;2022-11-21T01:19:15;13.20;;;10.03;;
2650;SDS011;1335;48.180;16.342;2022-11-21T01:21:42;10.07;;;8.70;;
2650;SDS011;1335;48.180;16.342;2022-11-21T01:24:09;10.70;;;8.73;;
2650;SDS011;1335;48.180;16.342;2022-11-21T01:26:37;12.23;;;9.43;;
2650;SDS011;1335;48.180;16.342;2022-11-21T01:29:04;12.03;;;10.10;;
2650;SDS011;1335;48.180;16.342;2022-11-21T01:31:32;14.00;;;10.17;;
2650;SDS011;1335;48.180;16.342;2022-11-21T01:34:01;12.30;;;10.73;;
2650;SDS011;1335;48.180;16.342;2022-11-21T01:36:29;13.80;;;11.80;;
2650;SDS011;1335;48.180;16.342;2022-11-21T01:38:57;17.13;;;12.17;;
2650;SDS011;1335;48.180;16.342;2022-11-21T01:41:26;11.70;;;10.13;;
2650;SDS011;1335;48.180;16.342;2022-11-21T01:43:56;11.40;;;9.30;;
2650;SDS011;1335;48.180;16.342;2022-11-21T01:47:15;12.90;;;10.00;;
2650;SDS011;1335;48.180;16.342;2022-11-21T03:28:31;4.93;;;4.40;;
2650;SDS011;1335;48.180;16.342;2022-11-21T03:30:58;4.10;;;3.63;;
2650;SDS011;1335;48.180;16.342;2022-11-21T03:33:25;3.50;;;3.20;;
2650;SDS011;1335;48.180;16.342;2022-11-21T03:35:52;6.00;;;3.80;;
2650;SDS011;1335;48.180;16.342;2022-11-21T03:38:19;4.67;;;4.00;;
2650;SDS011;1335;48.180;16.342;2022-11-21T03:40:46;4.60;;;3.73;;
2650;SDS011;1335;48.180;16.342;2022-11-21T03:43:13;5.17;;;3.80;;
2650;SDS011;1335;48.180;16.342;2022-11-21T03:45:41;4.20;;;3.60;;
2650;SDS011;1335;48.180;16.342;2022-11-21T03:48:11;4.00;;;3.60;;
2650;SDS011;1335;48.180;16.342;2022-11-21T03:50:40;4.43;;;3.90;;
2650;SDS011;1335;48.180;16.342;2022-11-21T03:53:08;4.20;;;3.73;;
2650;SDS011;1335;48.180;16.342;2022-11-21T03:55:35;4.30;;;4.00;;
2650;SDS011;1335;48.180;16.342;2022-11-21T03:58:02;5.63;;;3.10;;
2650;SDS011;1335;48.180;16.342;2022-11-21T04:00:33;4.40;;;3.67;;
2650;SDS011;1335;48.180;16.342;2022-11-21T04:03:52;3.10;;;2.50;;
2650;SDS011;1335;48.180;16.342;2022-11-21T04:06:20;5.20;;;2.20;;
2650;SDS011;1335;48.180;16.342;2022-11-21T04:08:47;3.10;;;2.40;;
2650;SDS011;1335;48.180;16.342;2022-11-21T04:11:15;3.33;;;3.03;;
2650;SDS011;1335;48.180;16.342;2022-11-21T04:13:42;4.77;;;4.27;;
2650;SDS011;1335;48.180;16.342;2022-11-21T04:16:09;8.17;;;5.97;;
2650;SDS011;1335;48.180;16.342;2022-11-21T04:18:36;9.53;;;7.17;;
2650;SDS011;1335;48.180;16.342;2022-11-21T04:21:05;5.73;;;4.03;;
2650;SDS011;1335;48.180;16.342;2022-11-21T04:23:33;4.60;;;4.10;;
2650;SDS011;1335;48.180;16.342;2022-11-21T04:26:00;4.67;;;3.63;;
2650;SDS011;1335;48.180;16.342;2022-11-21T04:28:37;4.77;;;3.83;;
2650;SDS011;1335;48.180;16.342;2022-11-21T04:31:58;4.40;;;3.97;;
2650;SDS011;1335;48.180;16.342;2022-11-21T04:34:25;3.13;;;2.70;;
2650;SDS011;1335;48.180;16.342;2022-11-21T04:36:53;3.27;;;2.47;;
2650;SDS011;1335;48.180;16.342;2022-11-21T04:39:20;1.93;;;1.83;;
2650;SDS011;1335;48.180;16.342;2022-11-21T04:41:47;2.10;;;1.70;;
2650;SDS011;1335;48.180;16.342;2022-11-21T04:44:14;1.73;;;1.47;;
2650;SDS011;1335;48.180;16.342;2022-11-21T04:46:41;1.57;;;1.47;;
2650;SDS011;1335;48.180;16.342;2022-11-21T04:49:08;1.80;;;1.70;;
2650;SDS011;1335;48.180;16.342;2022-11-21T04:51:35;2.27;;;1.83;;
2650;SDS011;1335;48.180;16.342;2022-11-21T04:54:04;2.07;;;1.97;;
2650;SDS011;1335;48.180;16.342;2022-11-21T04:56:31;2.33;;;2.23;;
2650;SDS011;1335;48.180;16.342;2022-11-21T04:58:58;2.20;;;1.53;;
2650;SDS011;1335;48.180;16.342;2022-11-21T05:01:28;1.70;;;1.60;;
2650;SDS011;1335;48.180;16.342;2022-11-21T05:04:24;1.40;;;1.30;;
2650;SDS011;1335;48.180;16.342;2022-11-21T05:07:27;3.90;;;1.60;;
